createdAt,value
2022-09-13T00:00:42.195Z,6.77
2022-09-13T00:06:15.159Z,6.69
2022-09-13T00:11:22.479Z,6.58
2022-09-13T00:16:29.187Z,6.47
2022-09-13T00:21:32.637Z,6.37
2022-09-13T00:26:35.974Z,6.33
2022-09-13T00:31:39.162Z,6.34
2022-09-13T00:36:44.099Z,6.34
2022-09-13T00:41:47.284Z,6.35
2022-09-13T00:46:50.887Z,6.37
2022-09-13T00:52:01.002Z,6.38
2022-09-13T00:57:05.828Z,6.36
2022-09-13T01:02:11.220Z,6.40
2022-09-13T01:07:16.914Z,6.40
2022-09-13T01:12:33.656Z,6.37
2022-09-13T01:17:39.753Z,6.49
2022-09-13T01:23:28.677Z,6.65
2022-09-13T01:28:56.103Z,6.68
2022-09-13T01:34:28.647Z,6.69
2022-09-13T01:39:50.737Z,6.69
2022-09-13T01:45:07.041Z,6.62
2022-09-13T01:50:37.464Z,6.51
2022-09-13T01:55:44.842Z,6.43
2022-09-13T02:01:50.796Z,6.35
2022-09-13T02:07:09.305Z,6.27
2022-09-13T02:12:23.766Z,6.24
2022-09-13T02:17:31.602Z,6.21
2022-09-13T02:22:38.273Z,6.20
2022-09-13T02:27:45.758Z,6.14
2022-09-13T02:33:16.958Z,6.10
2022-09-13T02:38:32.795Z,6.04
2022-09-13T02:43:45.042Z,5.97
2022-09-13T02:49:27.241Z,5.95
2022-09-13T02:54:33.422Z,5.89
2022-09-13T02:59:37.079Z,5.84
2022-09-13T03:04:40.735Z,5.77
2022-09-13T03:10:08.866Z,5.72
2022-09-13T03:15:20.852Z,5.65
2022-09-13T03:20:31.573Z,5.60
2022-09-13T03:25:46.852Z,5.53
2022-09-13T03:31:06.435Z,5.47
2022-09-13T03:36:19.626Z,5.38
2022-09-13T03:41:28.347Z,5.31
2022-09-13T03:46:48.969Z,5.26
2022-09-13T03:51:53.934Z,5.22
2022-09-13T03:57:15.629Z,5.20
2022-09-13T04:02:20.813Z,5.26
2022-09-13T04:07:25.514Z,5.36
2022-09-13T04:12:32.167Z,5.42
2022-09-13T04:17:36.912Z,5.48
2022-09-13T04:22:40.588Z,5.59
2022-09-13T04:27:44.015Z,5.78
2022-09-13T04:32:47.231Z,5.97
2022-09-13T04:37:51.633Z,6.15
2022-09-13T04:42:54.856Z,6.33
2022-09-13T04:47:58.441Z,6.52
2022-09-13T04:53:03.201Z,6.93
2022-09-13T04:58:06.856Z,7.40
2022-09-13T05:03:10.194Z,8.78
2022-09-13T05:08:15.089Z,10.50
2022-09-13T05:13:19.223Z,12.38
2022-09-13T05:18:23.203Z,14.08
2022-09-13T05:23:28.180Z,15.30
2022-09-13T05:28:35.868Z,15.97
2022-09-13T05:33:39.552Z,16.54
2022-09-13T05:38:42.864Z,17.29
2022-09-13T05:43:46.124Z,17.96
2022-09-13T05:48:52.383Z,18.62
2022-09-13T05:53:56.543Z,18.98
2022-09-13T05:59:00.132Z,19.09
2022-09-13T06:04:03.443Z,19.93
2022-09-13T06:09:09.053Z,20.57
2022-09-13T06:14:12.524Z,21.21
2022-09-13T06:19:16.160Z,22.17
2022-09-13T06:24:19.331Z,22.98
2022-09-13T06:29:22.607Z,23.75
2022-09-13T06:34:30.535Z,24.58
2022-09-13T06:39:34.542Z,24.57
2022-09-13T06:44:37.905Z,24.05
2022-09-13T06:49:42.236Z,23.18
2022-09-13T06:54:46.158Z,22.44
2022-09-13T06:59:49.400Z,22.05
2022-09-13T07:04:54.107Z,22.15
2022-09-13T07:09:57.416Z,22.23
2022-09-13T07:15:00.554Z,22.01
2022-09-13T07:20:06.949Z,21.50
2022-09-13T07:25:10.695Z,21.54
2022-09-13T07:30:13.967Z,21.69
2022-09-13T07:35:17.714Z,21.92
2022-09-13T07:40:20.921Z,22.15
2022-09-13T07:45:24.055Z,22.79
2022-09-13T07:50:27.193Z,23.25
2022-09-13T07:55:31.600Z,23.40
2022-09-13T08:00:34.831Z,23.87
2022-09-13T08:05:42.015Z,23.79
2022-09-13T08:10:48.900Z,23.52
2022-09-13T08:15:53.453Z,23.79
2022-09-13T08:20:58.842Z,24.13
2022-09-13T08:26:04.048Z,24.12
2022-09-13T08:31:12.427Z,23.80
2022-09-13T08:36:21.035Z,23.06
2022-09-13T08:41:42.665Z,22.24
2022-09-13T08:46:47.991Z,21.62
2022-09-13T08:52:02.095Z,21.35
2022-09-13T08:57:21.431Z,21.07
2022-09-13T09:02:51.995Z,20.92
2022-09-13T09:08:02.576Z,20.99
2022-09-13T09:13:14.128Z,21.16
2022-09-13T09:18:25.929Z,21.28
2022-09-13T09:23:44.893Z,21.14
2022-09-13T09:29:02.027Z,20.95
2022-09-13T09:34:27.282Z,20.81
2022-09-13T09:39:33.941Z,20.87
2022-09-13T09:44:41.104Z,20.84
2022-09-13T09:50:11.219Z,20.76
2022-09-13T09:55:19.143Z,20.71
2022-09-13T10:00:26.274Z,20.85
2022-09-13T10:05:32.551Z,21.14
2022-09-13T10:10:54.462Z,21.41
2022-09-13T10:16:19.069Z,21.41
2022-09-13T10:21:25.462Z,21.03
2022-09-13T10:26:34.409Z,20.83
2022-09-13T10:31:44.776Z,20.67
2022-09-13T10:36:53.924Z,20.67
2022-09-13T10:42:00.109Z,20.57
2022-09-13T10:47:13.671Z,20.58
2022-09-13T10:52:33.060Z,20.50
2022-09-13T10:57:38.436Z,20.41
2022-09-13T11:03:13.009Z,20.53
2022-09-13T11:08:18.806Z,20.70
2022-09-13T11:13:54.437Z,20.69
2022-09-13T11:19:38.934Z,20.39
2022-09-13T11:24:50.889Z,20.20
2022-09-13T11:30:11.979Z,19.96
2022-09-13T11:35:47.705Z,19.83
2022-09-13T11:40:56.757Z,19.87
2022-09-13T11:46:44.391Z,19.94
2022-09-13T11:52:13.702Z,19.92
2022-09-13T11:58:06.197Z,19.77
2022-09-13T12:03:30.734Z,19.63
2022-09-13T12:08:48.138Z,19.49
2022-09-13T12:13:56.548Z,19.31
2022-09-13T12:19:32.590Z,19.28
2022-09-13T12:24:44.260Z,19.32
2022-09-13T12:30:05.444Z,19.43
2022-09-13T12:35:32.428Z,19.57
2022-09-13T12:40:58.644Z,19.66
2022-09-13T12:46:10.224Z,19.86
2022-09-13T12:51:35.532Z,20.03
2022-09-13T12:56:57.604Z,20.16
2022-09-13T13:02:00.854Z,20.24
2022-09-13T13:07:07.145Z,20.29
2022-09-13T13:12:30.468Z,20.34
2022-09-13T13:17:52.548Z,20.45
2022-09-13T13:23:23.962Z,20.52
2022-09-13T13:28:50.918Z,20.46
2022-09-13T13:34:15.648Z,20.42
2022-09-13T13:39:24.985Z,20.36
2022-09-13T13:44:29.839Z,20.33
2022-09-13T13:49:36.830Z,20.28
2022-09-13T13:54:43.118Z,20.13
2022-09-13T13:59:48.204Z,20.03
2022-09-13T14:05:31.348Z,19.87
2022-09-13T14:10:43.454Z,19.71
2022-09-13T14:16:05.833Z,19.60
2022-09-13T14:21:20.084Z,19.46
2022-09-13T14:26:24.658Z,19.26
2022-09-13T14:31:28.059Z,19.11
2022-09-13T14:36:31.390Z,19.04
2022-09-13T14:41:38.434Z,18.98
2022-09-13T14:46:45.803Z,18.95
2022-09-13T14:52:15.977Z,18.94
2022-09-13T14:57:26.687Z,18.91
2022-09-13T15:02:36.303Z,18.80
2022-09-13T15:07:41.161Z,18.69
2022-09-13T15:12:56.167Z,18.64
2022-09-13T15:18:01.302Z,18.57
2022-09-13T15:23:14.742Z,18.46
2022-09-13T15:28:25.455Z,18.35
2022-09-13T15:33:34.649Z,18.24
2022-09-13T15:38:37.923Z,18.16
2022-09-13T15:43:41.539Z,18.05
2022-09-13T15:48:53.134Z,17.94
2022-09-13T15:53:57.355Z,17.85
2022-09-13T15:59:01.316Z,17.78
2022-09-13T16:04:05.314Z,17.71
2022-09-13T16:09:29.111Z,17.66
2022-09-13T16:14:32.388Z,17.61
2022-09-13T16:19:35.647Z,17.50
2022-09-13T16:24:38.756Z,17.41
2022-09-13T16:29:43.131Z,17.32
2022-09-13T16:34:47.895Z,17.23
2022-09-13T16:39:51.385Z,17.15
2022-09-13T16:44:54.787Z,17.07
2022-09-13T16:49:58.098Z,16.99
2022-09-13T16:55:02.573Z,16.92
2022-09-13T17:00:12.387Z,16.87
2022-09-13T17:05:16.038Z,16.82
2022-09-13T17:10:19.768Z,16.78
2022-09-13T17:15:24.239Z,16.76
2022-09-13T17:20:27.480Z,16.76
2022-09-13T17:25:31.421Z,16.75
2022-09-13T17:30:34.715Z,16.75
2022-09-13T17:35:38.611Z,16.74
2022-09-13T17:40:42.722Z,16.72
2022-09-13T17:45:46.987Z,16.72
2022-09-13T17:50:50.367Z,16.71
2022-09-13T17:55:54.100Z,16.71
2022-09-13T18:01:08.670Z,16.71
2022-09-13T18:06:14.929Z,16.71
2022-09-13T18:11:22.301Z,16.70
2022-09-13T18:16:29.817Z,16.70
2022-09-13T18:21:33.185Z,16.69
2022-09-13T18:26:37.160Z,16.67
2022-09-13T18:31:42.471Z,16.64
2022-09-13T18:36:46.945Z,16.61
2022-09-13T18:41:50.788Z,16.57
2022-09-13T18:46:54.732Z,16.55
2022-09-13T18:51:57.976Z,16.52
2022-09-13T18:57:01.467Z,16.50
2022-09-13T19:02:04.988Z,16.48
2022-09-13T19:07:08.505Z,16.43
2022-09-13T19:12:11.740Z,16.33
2022-09-13T19:17:15.437Z,16.19
2022-09-13T19:22:23.206Z,16.05
2022-09-13T19:27:26.785Z,15.92
2022-09-13T19:32:30.088Z,15.86
2022-09-13T19:37:33.556Z,15.83
2022-09-13T19:42:36.860Z,15.75
2022-09-13T19:53:03.273Z,15.48
2022-09-13T19:58:06.408Z,15.37
2022-09-13T20:03:11.829Z,15.29
2022-09-13T20:08:15.242Z,15.22
2022-09-13T20:13:18.766Z,15.16
2022-09-13T20:18:22.176Z,15.14
2022-09-13T20:23:25.407Z,15.17
2022-09-13T20:28:28.565Z,15.21
2022-09-13T20:33:31.893Z,15.24
2022-09-13T20:38:35.339Z,15.24
2022-09-13T20:43:39.240Z,15.24
2022-09-13T20:48:44.749Z,15.17
2022-09-13T20:53:53.060Z,14.99
2022-09-13T20:59:00.645Z,14.80
2022-09-13T21:04:05.616Z,14.60
2022-09-13T21:09:08.877Z,14.47
2022-09-13T21:14:12.435Z,14.42
2022-09-13T21:19:15.699Z,14.36
2022-09-13T21:24:18.977Z,14.30
2022-09-13T21:29:22.323Z,14.23
2022-09-13T21:34:27.603Z,14.15
2022-09-13T21:39:30.840Z,14.01
2022-09-13T21:44:34.074Z,13.87
2022-09-13T21:49:37.237Z,13.74
2022-09-13T21:54:40.450Z,13.61
2022-09-13T21:59:44.135Z,13.47
2022-09-13T22:04:47.309Z,13.33
2022-09-13T22:09:50.410Z,13.21
2022-09-13T22:14:53.647Z,13.13
2022-09-13T22:19:56.891Z,13.05
2022-09-13T22:25:00.019Z,12.95
2022-09-13T22:30:05.740Z,12.83
2022-09-13T22:35:09.924Z,12.76
2022-09-13T22:40:13.142Z,12.69
2022-09-13T22:45:16.335Z,12.63
2022-09-13T22:50:19.475Z,12.53
2022-09-13T22:55:26.220Z,12.49
2022-09-13T23:00:32.602Z,12.39
2022-09-13T23:05:36.452Z,12.25
2022-09-13T23:10:39.525Z,12.10
2022-09-13T23:15:43.023Z,12.03
2022-09-13T23:20:56.808Z,12.05
2022-09-13T23:26:09.450Z,12.05
2022-09-13T23:31:18.616Z,12.03
2022-09-13T23:36:25.754Z,11.94
2022-09-13T23:41:29.971Z,11.88
2022-09-13T23:46:36.802Z,11.85
2022-09-13T23:51:40.277Z,11.74
2022-09-13T23:56:44.628Z,11.63
